sensor_id;sensor_type;location;lat;lon;timestamp;P1;durP1;ratioP1;P2;durP2;ratioP2
44824;SDS011;30542;47.928;2.138;2023-12-20T00:02:46;1.30;;;0.50;;
44824;SDS011;30542;47.928;2.138;2023-12-20T00:07:47;0.70;;;0.50;;
44824;SDS011;30542;47.928;2.138;2023-12-20T00:12:47;0.60;;;0.30;;
44824;SDS011;30542;47.928;2.138;2023-12-20T00:17:47;0.67;;;0.47;;
44824;SDS011;30542;47.928;2.138;2023-12-20T00:22:48;0.60;;;0.40;;
44824;SDS011;30542;47.928;2.138;2023-12-20T00:27:48;0.70;;;0.40;;
44824;SDS011;30542;47.928;2.138;2023-12-20T00:32:48;0.65;;;0.40;;
44824;SDS011;30542;47.928;2.138;2023-12-20T00:37:49;0.53;;;0.30;;
44824;SDS011;30542;47.928;2.138;2023-12-20T00:42:49;1.75;;;0.40;;
44824;SDS011;30542;47.928;2.138;2023-12-20T00:47:50;0.83;;;0.40;;
44824;SDS011;30542;47.928;2.138;2023-12-20T00:52:50;0.60;;;0.40;;
44824;SDS011;30542;47.928;2.138;2023-12-20T00:57:50;0.40;;;0.40;;
44824;SDS011;30542;47.928;2.138;2023-12-20T01:02:52;0.77;;;0.40;;
44824;SDS011;30542;47.928;2.138;2023-12-20T01:07:52;0.63;;;0.30;;
44824;SDS011;30542;47.928;2.138;2023-12-20T01:12:53;0.33;;;0.27;;
44824;SDS011;30542;47.928;2.138;2023-12-20T01:17:53;0.60;;;0.40;;
44824;SDS011;30542;47.928;2.138;2023-12-20T01:22:54;0.73;;;0.30;;
44824;SDS011;30542;47.928;2.138;2023-12-20T01:27:54;0.40;;;0.30;;
44824;SDS011;30542;47.928;2.138;2023-12-20T01:32:54;0.50;;;0.30;;
44824;SDS011;30542;47.928;2.138;2023-12-20T01:37:55;0.50;;;0.30;;
44824;SDS011;30542;47.928;2.138;2023-12-20T01:43:01;0.68;;;0.32;;
44824;SDS011;30542;47.928;2.138;2023-12-20T01:48:06;0.40;;;0.30;;
44824;SDS011;30542;47.928;2.138;2023-12-20T01:53:08;0.43;;;0.20;;
44824;SDS011;30542;47.928;2.138;2023-12-20T01:58:10;1.83;;;0.40;;
44824;SDS011;30542;47.928;2.138;2023-12-20T02:03:12;0.40;;;0.30;;
44824;SDS011;30542;47.928;2.138;2023-12-20T02:08:12;0.47;;;0.30;;
44824;SDS011;30542;47.928;2.138;2023-12-20T02:13:13;0.40;;;0.30;;
44824;SDS011;30542;47.928;2.138;2023-12-20T02:18:13;0.57;;;0.37;;
44824;SDS011;30542;47.928;2.138;2023-12-20T02:23:16;0.70;;;0.30;;
44824;SDS011;30542;47.928;2.138;2023-12-20T02:28:17;1.17;;;0.30;;
44824;SDS011;30542;47.928;2.138;2023-12-20T02:33:17;0.30;;;0.20;;
44824;SDS011;30542;47.928;2.138;2023-12-20T02:38:17;0.50;;;0.30;;
44824;SDS011;30542;47.928;2.138;2023-12-20T02:43:18;0.93;;;0.27;;
44824;SDS011;30542;47.928;2.138;2023-12-20T02:48:18;1.10;;;0.33;;
44824;SDS011;30542;47.928;2.138;2023-12-20T02:53:18;0.50;;;0.30;;
44824;SDS011;30542;47.928;2.138;2023-12-20T02:58:19;0.43;;;0.30;;
44824;SDS011;30542;47.928;2.138;2023-12-20T03:03:19;0.53;;;0.30;;
44824;SDS011;30542;47.928;2.138;2023-12-20T03:08:20;0.43;;;0.32;;
44824;SDS011;30542;47.928;2.138;2023-12-20T03:13:20;0.30;;;0.30;;
44824;SDS011;30542;47.928;2.138;2023-12-20T03:18:20;0.80;;;0.20;;
44824;SDS011;30542;47.928;2.138;2023-12-20T03:23:21;0.67;;;0.30;;
44824;SDS011;30542;47.928;2.138;2023-12-20T03:28:21;0.50;;;0.20;;
44824;SDS011;30542;47.928;2.138;2023-12-20T03:33:22;0.35;;;0.30;;
44824;SDS011;30542;47.928;2.138;2023-12-20T03:38:23;0.40;;;0.20;;
44824;SDS011;30542;47.928;2.138;2023-12-20T03:43:24;1.55;;;0.30;;
44824;SDS011;30542;47.928;2.138;2023-12-20T03:48:24;0.20;;;0.20;;
44824;SDS011;30542;47.928;2.138;2023-12-20T03:53:24;0.53;;;0.30;;
44824;SDS011;30542;47.928;2.138;2023-12-20T03:58:25;1.50;;;0.30;;
44824;SDS011;30542;47.928;2.138;2023-12-20T04:03:25;0.87;;;0.30;;
44824;SDS011;30542;47.928;2.138;2023-12-20T04:08:25;2.37;;;0.40;;
44824;SDS011;30542;47.928;2.138;2023-12-20T04:13:26;0.93;;;0.20;;
44824;SDS011;30542;47.928;2.138;2023-12-20T04:18:26;0.77;;;0.20;;
44824;SDS011;30542;47.928;2.138;2023-12-20T04:23:28;0.60;;;0.28;;
44824;SDS011;30542;47.928;2.138;2023-12-20T04:28:28;1.07;;;0.40;;
44824;SDS011;30542;47.928;2.138;2023-12-20T04:33:30;0.80;;;0.20;;
44824;SDS011;30542;47.928;2.138;2023-12-20T04:38:30;0.40;;;0.10;;
44824;SDS011;30542;47.928;2.138;2023-12-20T04:43:31;0.82;;;0.28;;
44824;SDS011;30542;47.928;2.138;2023-12-20T04:48:32;1.40;;;0.20;;
44824;SDS011;30542;47.928;2.138;2023-12-20T04:53:32;0.20;;;0.10;;
44824;SDS011;30542;47.928;2.138;2023-12-20T04:58:32;0.50;;;0.20;;
44824;SDS011;30542;47.928;2.138;2023-12-20T05:03:33;0.37;;;0.20;;
44824;SDS011;30542;47.928;2.138;2023-12-20T05:08:33;1.13;;;0.20;;
44824;SDS011;30542;47.928;2.138;2023-12-20T05:13:33;1.00;;;0.20;;
44824;SDS011;30542;47.928;2.138;2023-12-20T05:18:34;0.33;;;0.20;;
44824;SDS011;30542;47.928;2.138;2023-12-20T05:23:34;1.88;;;0.28;;
44824;SDS011;30542;47.928;2.138;2023-12-20T05:28:35;2.90;;;0.40;;
44824;SDS011;30542;47.928;2.138;2023-12-20T05:33:35;0.87;;;0.30;;
44824;SDS011;30542;47.928;2.138;2023-12-20T05:38:35;4.57;;;0.80;;
44824;SDS011;30542;47.928;2.138;2023-12-20T05:43:36;2.20;;;0.40;;
44824;SDS011;30542;47.928;2.138;2023-12-20T05:48:36;1.67;;;0.30;;
44824;SDS011;30542;47.928;2.138;2023-12-20T05:53:36;1.90;;;0.30;;
44824;SDS011;30542;47.928;2.138;2023-12-20T05:58:38;2.47;;;0.70;;
44824;SDS011;30542;47.928;2.138;2023-12-20T06:03:41;1.30;;;0.30;;
44824;SDS011;30542;47.928;2.138;2023-12-20T06:08:42;4.13;;;0.77;;
44824;SDS011;30542;47.928;2.138;2023-12-20T06:13:43;4.10;;;1.13;;
44824;SDS011;30542;47.928;2.138;2023-12-20T06:18:44;9.75;;;1.33;;
44824;SDS011;30542;47.928;2.138;2023-12-20T06:23:44;9.13;;;1.43;;
44824;SDS011;30542;47.928;2.138;2023-12-20T06:28:44;7.07;;;1.77;;
44824;SDS011;30542;47.928;2.138;2023-12-20T06:33:45;7.83;;;1.77;;
44824;SDS011;30542;47.928;2.138;2023-12-20T06:38:45;4.83;;;0.83;;
44824;SDS011;30542;47.928;2.138;2023-12-20T06:43:46;5.80;;;1.25;;
44824;SDS011;30542;47.928;2.138;2023-12-20T06:48:47;2.80;;;0.98;;
44824;SDS011;30542;47.928;2.138;2023-12-20T06:53:47;3.67;;;0.90;;
44824;SDS011;30542;47.928;2.138;2023-12-20T06:58:47;5.40;;;1.10;;
44824;SDS011;30542;47.928;2.138;2023-12-20T07:03:48;4.10;;;1.00;;
44824;SDS011;30542;47.928;2.138;2023-12-20T07:08:48;3.55;;;1.05;;
44824;SDS011;30542;47.928;2.138;2023-12-20T07:13:49;4.97;;;1.37;;
44824;SDS011;30542;47.928;2.138;2023-12-20T07:18:49;4.85;;;1.00;;
44824;SDS011;30542;47.928;2.138;2023-12-20T07:23:50;9.55;;;1.98;;
44824;SDS011;30542;47.928;2.138;2023-12-20T07:28:50;11.68;;;2.35;;
44824;SDS011;30542;47.928;2.138;2023-12-20T07:33:51;13.20;;;3.67;;
44824;SDS011;30542;47.928;2.138;2023-12-20T07:38:51;10.30;;;2.37;;
44824;SDS011;30542;47.928;2.138;2023-12-20T07:43:51;9.37;;;2.57;;
44824;SDS011;30542;47.928;2.138;2023-12-20T07:48:53;8.73;;;2.47;;
44824;SDS011;30542;47.928;2.138;2023-12-20T07:53:53;7.13;;;1.80;;
44824;SDS011;30542;47.928;2.138;2023-12-20T07:58:54;8.30;;;1.93;;
44824;SDS011;30542;47.928;2.138;2023-12-20T08:03:54;7.73;;;1.97;;
44824;SDS011;30542;47.928;2.138;2023-12-20T08:08:55;7.90;;;2.10;;
44824;SDS011;30542;47.928;2.138;2023-12-20T08:13:55;4.63;;;1.60;;
44824;SDS011;30542;47.928;2.138;2023-12-20T08:18:55;8.90;;;1.95;;
44824;SDS011;30542;47.928;2.138;2023-12-20T08:23:56;6.07;;;1.80;;
44824;SDS011;30542;47.928;2.138;2023-12-20T08:28:56;6.30;;;1.80;;
44824;SDS011;30542;47.928;2.138;2023-12-20T08:33:56;7.97;;;2.47;;
44824;SDS011;30542;47.928;2.138;2023-12-20T08:38:57;6.53;;;1.90;;
44824;SDS011;30542;47.928;2.138;2023-12-20T08:43:57;9.13;;;2.17;;
44824;SDS011;30542;47.928;2.138;2023-12-20T08:48:58;9.38;;;2.28;;
44824;SDS011;30542;47.928;2.138;2023-12-20T08:53:58;5.43;;;1.88;;
44824;SDS011;30542;47.928;2.138;2023-12-20T08:58:59;4.50;;;1.80;;
44824;SDS011;30542;47.928;2.138;2023-12-20T09:03:59;6.30;;;2.30;;
44824;SDS011;30542;47.928;2.138;2023-12-20T09:08:59;4.07;;;1.80;;
44824;SDS011;30542;47.928;2.138;2023-12-20T09:14:00;5.63;;;1.67;;
44824;SDS011;30542;47.928;2.138;2023-12-20T09:19:01;4.50;;;1.88;;
44824;SDS011;30542;47.928;2.138;2023-12-20T09:24:02;3.77;;;1.60;;
44824;SDS011;30542;47.928;2.138;2023-12-20T09:29:03;5.65;;;1.75;;
44824;SDS011;30542;47.928;2.138;2023-12-20T09:34:03;4.30;;;1.63;;
44824;SDS011;30542;47.928;2.138;2023-12-20T09:39:03;3.23;;;1.43;;
44824;SDS011;30542;47.928;2.138;2023-12-20T09:44:04;3.57;;;1.43;;
44824;SDS011;30542;47.928;2.138;2023-12-20T09:49:05;3.88;;;1.20;;
44824;SDS011;30542;47.928;2.138;2023-12-20T09:54:06;4.40;;;1.55;;
44824;SDS011;30542;47.928;2.138;2023-12-20T09:59:06;3.20;;;1.40;;
44824;SDS011;30542;47.928;2.138;2023-12-20T10:04:07;4.03;;;1.50;;
44824;SDS011;30542;47.928;2.138;2023-12-20T10:09:09;3.60;;;1.63;;
44824;SDS011;30542;47.928;2.138;2023-12-20T10:14:10;4.13;;;1.10;;
44824;SDS011;30542;47.928;2.138;2023-12-20T10:19:11;3.40;;;1.40;;
44824;SDS011;30542;47.928;2.138;2023-12-20T10:24:16;3.33;;;1.27;;
44824;SDS011;30542;47.928;2.138;2023-12-20T10:29:17;3.80;;;1.80;;
44824;SDS011;30542;47.928;2.138;2023-12-20T10:34:18;3.77;;;1.13;;
44824;SDS011;30542;47.928;2.138;2023-12-20T10:39:18;2.17;;;1.10;;
44824;SDS011;30542;47.928;2.138;2023-12-20T10:44:20;2.45;;;0.65;;
44824;SDS011;30542;47.928;2.138;2023-12-20T10:49:20;2.20;;;0.90;;
44824;SDS011;30542;47.928;2.138;2023-12-20T10:54:21;3.55;;;1.23;;
44824;SDS011;30542;47.928;2.138;2023-12-20T10:59:22;1.88;;;1.02;;
44824;SDS011;30542;47.928;2.138;2023-12-20T11:04:24;2.15;;;0.98;;
44824;SDS011;30542;47.928;2.138;2023-12-20T11:09:35;3.33;;;1.33;;
44824;SDS011;30542;47.928;2.138;2023-12-20T11:14:46;1.25;;;0.80;;
44824;SDS011;30542;47.928;2.138;2023-12-20T11:24:52;2.33;;;0.95;;
44824;SDS011;30542;47.928;2.138;2023-12-20T11:29:56;2.20;;;0.90;;
44824;SDS011;30542;47.928;2.138;2023-12-20T11:34:58;2.83;;;1.20;;
44824;SDS011;30542;47.928;2.138;2023-12-20T11:40:05;3.22;;;0.80;;
44824;SDS011;30542;47.928;2.138;2023-12-20T11:45:09;3.20;;;0.68;;
44824;SDS011;30542;47.928;2.138;2023-12-20T11:50:11;2.25;;;0.82;;
44824;SDS011;30542;47.928;2.138;2023-12-20T11:55:11;1.77;;;0.82;;
44824;SDS011;30542;47.928;2.138;2023-12-20T12:00:13;3.17;;;1.05;;
44824;SDS011;30542;47.928;2.138;2023-12-20T12:05:14;2.13;;;0.93;;
44824;SDS011;30542;47.928;2.138;2023-12-20T12:10:14;2.93;;;1.37;;
44824;SDS011;30542;47.928;2.138;2023-12-20T12:15:15;2.85;;;0.93;;
44824;SDS011;30542;47.928;2.138;2023-12-20T12:20:15;2.25;;;0.88;;
44824;SDS011;30542;47.928;2.138;2023-12-20T12:25:20;1.95;;;0.80;;
44824;SDS011;30542;47.928;2.138;2023-12-20T12:30:22;3.28;;;1.35;;
44824;SDS011;30542;47.928;2.138;2023-12-20T12:35:22;1.90;;;0.70;;
44824;SDS011;30542;47.928;2.138;2023-12-20T12:40:23;2.25;;;1.08;;
44824;SDS011;30542;47.928;2.138;2023-12-20T12:45:23;3.70;;;1.30;;
44824;SDS011;30542;47.928;2.138;2023-12-20T12:50:24;1.92;;;0.80;;
44824;SDS011;30542;47.928;2.138;2023-12-20T12:55:25;1.70;;;0.68;;
44824;SDS011;30542;47.928;2.138;2023-12-20T13:00:25;1.77;;;0.50;;
44824;SDS011;30542;47.928;2.138;2023-12-20T13:05:26;2.42;;;0.93;;
44824;SDS011;30542;47.928;2.138;2023-12-20T13:10:26;3.67;;;0.50;;
44824;SDS011;30542;47.928;2.138;2023-12-20T13:15:26;1.80;;;0.70;;
44824;SDS011;30542;47.928;2.138;2023-12-20T13:20:27;1.93;;;1.30;;
44824;SDS011;30542;47.928;2.138;2023-12-20T13:25:27;1.83;;;0.68;;
44824;SDS011;30542;47.928;2.138;2023-12-20T13:30:28;2.70;;;0.97;;
44824;SDS011;30542;47.928;2.138;2023-12-20T13:35:28;1.10;;;0.47;;
44824;SDS011;30542;47.928;2.138;2023-12-20T13:40:28;1.90;;;0.60;;
44824;SDS011;30542;47.928;2.138;2023-12-20T13:45:29;1.63;;;0.43;;
44824;SDS011;30542;47.928;2.138;2023-12-20T13:50:29;2.05;;;0.85;;
44824;SDS011;30542;47.928;2.138;2023-12-20T13:55:30;1.50;;;0.70;;
44824;SDS011;30542;47.928;2.138;2023-12-20T14:00:30;1.65;;;0.52;;
44824;SDS011;30542;47.928;2.138;2023-12-20T14:05:30;1.03;;;0.50;;
44824;SDS011;30542;47.928;2.138;2023-12-20T14:10:31;1.13;;;0.40;;
44824;SDS011;30542;47.928;2.138;2023-12-20T14:15:31;1.87;;;0.70;;
44824;SDS011;30542;47.928;2.138;2023-12-20T14:20:36;1.40;;;0.55;;
44824;SDS011;30542;47.928;2.138;2023-12-20T14:25:39;0.95;;;0.40;;
44824;SDS011;30542;47.928;2.138;2023-12-20T14:30:40;1.00;;;0.40;;
44824;SDS011;30542;47.928;2.138;2023-12-20T14:35:40;1.15;;;0.60;;
44824;SDS011;30542;47.928;2.138;2023-12-20T14:40:42;1.77;;;0.50;;
44824;SDS011;30542;47.928;2.138;2023-12-20T14:45:43;1.17;;;0.50;;
44824;SDS011;30542;47.928;2.138;2023-12-20T14:50:43;1.27;;;0.30;;
44824;SDS011;30542;47.928;2.138;2023-12-20T14:55:44;1.25;;;0.40;;
44824;SDS011;30542;47.928;2.138;2023-12-20T15:00:45;1.98;;;0.50;;
44824;SDS011;30542;47.928;2.138;2023-12-20T15:05:45;1.50;;;0.70;;
44824;SDS011;30542;47.928;2.138;2023-12-20T15:10:47;2.28;;;0.60;;
44824;SDS011;30542;47.928;2.138;2023-12-20T15:15:48;1.60;;;0.47;;
44824;SDS011;30542;47.928;2.138;2023-12-20T15:20:48;0.53;;;0.30;;
44824;SDS011;30542;47.928;2.138;2023-12-20T15:25:49;1.50;;;0.52;;
44824;SDS011;30542;47.928;2.138;2023-12-20T15:30:49;1.23;;;0.30;;
44824;SDS011;30542;47.928;2.138;2023-12-20T15:35:50;0.83;;;0.37;;
44824;SDS011;30542;47.928;2.138;2023-12-20T15:40:50;2.10;;;0.40;;
44824;SDS011;30542;47.928;2.138;2023-12-20T15:45:50;0.73;;;0.37;;
44824;SDS011;30542;47.928;2.138;2023-12-20T15:50:51;1.58;;;0.43;;
44824;SDS011;30542;47.928;2.138;2023-12-20T15:55:51;2.00;;;0.80;;
44824;SDS011;30542;47.928;2.138;2023-12-20T16:00:52;0.77;;;0.40;;
44824;SDS011;30542;47.928;2.138;2023-12-20T16:05:53;1.60;;;0.50;;
44824;SDS011;30542;47.928;2.138;2023-12-20T16:10:54;1.92;;;0.50;;
44824;SDS011;30542;47.928;2.138;2023-12-20T16:15:54;1.57;;;0.60;;
44824;SDS011;30542;47.928;2.138;2023-12-20T16:20:54;1.43;;;0.50;;
44824;SDS011;30542;47.928;2.138;2023-12-20T16:25:55;2.10;;;0.50;;
44824;SDS011;30542;47.928;2.138;2023-12-20T16:30:55;1.40;;;0.40;;
44824;SDS011;30542;47.928;2.138;2023-12-20T16:35:56;1.73;;;0.50;;
44824;SDS011;30542;47.928;2.138;2023-12-20T16:40:57;2.50;;;0.43;;
44824;SDS011;30542;47.928;2.138;2023-12-20T16:45:57;2.83;;;0.60;;
44824;SDS011;30542;47.928;2.138;2023-12-20T16:50:57;3.57;;;0.70;;
44824;SDS011;30542;47.928;2.138;2023-12-20T16:55:58;1.90;;;0.40;;
44824;SDS011;30542;47.928;2.138;2023-12-20T17:00:59;3.30;;;0.60;;
44824;SDS011;30542;47.928;2.138;2023-12-20T17:06:00;4.57;;;0.70;;
44824;SDS011;30542;47.928;2.138;2023-12-20T17:11:00;5.43;;;0.77;;
44824;SDS011;30542;47.928;2.138;2023-12-20T17:16:01;3.45;;;0.70;;
44824;SDS011;30542;47.928;2.138;2023-12-20T17:21:01;3.03;;;0.87;;
44824;SDS011;30542;47.928;2.138;2023-12-20T17:26:02;2.15;;;0.50;;
44824;SDS011;30542;47.928;2.138;2023-12-20T17:31:02;2.90;;;0.82;;
44824;SDS011;30542;47.928;2.138;2023-12-20T17:36:03;3.20;;;0.50;;
44824;SDS011;30542;47.928;2.138;2023-12-20T17:41:05;1.88;;;0.47;;
44824;SDS011;30542;47.928;2.138;2023-12-20T17:46:05;1.97;;;0.67;;
44824;SDS011;30542;47.928;2.138;2023-12-20T17:51:06;2.67;;;0.65;;
44824;SDS011;30542;47.928;2.138;2023-12-20T17:56:06;1.73;;;0.50;;
44824;SDS011;30542;47.928;2.138;2023-12-20T18:01:07;0.88;;;0.40;;
44824;SDS011;30542;47.928;2.138;2023-12-20T18:06:07;1.20;;;0.47;;
44824;SDS011;30542;47.928;2.138;2023-12-20T18:11:08;1.92;;;0.57;;
44824;SDS011;30542;47.928;2.138;2023-12-20T18:16:08;2.23;;;0.50;;
44824;SDS011;30542;47.928;2.138;2023-12-20T18:21:11;1.50;;;0.73;;
44824;SDS011;30542;47.928;2.138;2023-12-20T18:26:12;2.10;;;0.50;;
44824;SDS011;30542;47.928;2.138;2023-12-20T18:31:12;1.58;;;0.43;;
44824;SDS011;30542;47.928;2.138;2023-12-20T18:36:12;2.10;;;0.40;;
44824;SDS011;30542;47.928;2.138;2023-12-20T18:41:13;1.57;;;0.53;;
44824;SDS011;30542;47.928;2.138;2023-12-20T18:46:14;2.10;;;0.55;;
44824;SDS011;30542;47.928;2.138;2023-12-20T18:51:15;0.70;;;0.28;;
44824;SDS011;30542;47.928;2.138;2023-12-20T18:56:15;2.63;;;0.87;;
44824;SDS011;30542;47.928;2.138;2023-12-20T19:01:15;2.40;;;0.40;;
44824;SDS011;30542;47.928;2.138;2023-12-20T19:06:16;1.42;;;0.55;;
44824;SDS011;30542;47.928;2.138;2023-12-20T19:11:16;3.20;;;0.47;;
44824;SDS011;30542;47.928;2.138;2023-12-20T19:16:18;1.90;;;0.40;;
44824;SDS011;30542;47.928;2.138;2023-12-20T19:21:18;2.05;;;0.73;;
44824;SDS011;30542;47.928;2.138;2023-12-20T19:26:19;0.82;;;0.40;;
44824;SDS011;30542;47.928;2.138;2023-12-20T19:31:20;2.10;;;0.50;;
44824;SDS011;30542;47.928;2.138;2023-12-20T19:36:20;1.75;;;0.47;;
44824;SDS011;30542;47.928;2.138;2023-12-20T19:41:20;2.73;;;0.60;;
44824;SDS011;30542;47.928;2.138;2023-12-20T19:46:21;2.73;;;0.40;;
44824;SDS011;30542;47.928;2.138;2023-12-20T19:51:21;1.07;;;0.60;;
44824;SDS011;30542;47.928;2.138;2023-12-20T19:56:23;1.52;;;0.50;;
44824;SDS011;30542;47.928;2.138;2023-12-20T20:01:24;2.42;;;0.52;;
44824;SDS011;30542;47.928;2.138;2023-12-20T20:06:24;1.30;;;0.60;;
44824;SDS011;30542;47.928;2.138;2023-12-20T20:11:25;1.80;;;0.40;;
44824;SDS011;30542;47.928;2.138;2023-12-20T20:16:25;1.85;;;0.60;;
44824;SDS011;30542;47.928;2.138;2023-12-20T20:21:26;3.07;;;0.50;;
44824;SDS011;30542;47.928;2.138;2023-12-20T20:26:26;1.83;;;0.43;;
44824;SDS011;30542;47.928;2.138;2023-12-20T20:31:26;2.60;;;0.50;;
44824;SDS011;30542;47.928;2.138;2023-12-20T20:36:31;1.77;;;0.40;;
44824;SDS011;30542;47.928;2.138;2023-12-20T20:41:31;1.67;;;0.47;;
44824;SDS011;30542;47.928;2.138;2023-12-20T20:46:32;2.37;;;0.50;;
44824;SDS011;30542;47.928;2.138;2023-12-20T20:51:32;1.80;;;0.60;;
44824;SDS011;30542;47.928;2.138;2023-12-20T20:56:32;2.03;;;0.50;;
44824;SDS011;30542;47.928;2.138;2023-12-20T21:01:34;0.60;;;0.40;;
44824;SDS011;30542;47.928;2.138;2023-12-20T21:06:34;0.67;;;0.40;;
44824;SDS011;30542;47.928;2.138;2023-12-20T21:11:34;0.80;;;0.30;;
44824;SDS011;30542;47.928;2.138;2023-12-20T21:16:35;1.10;;;0.40;;
44824;SDS011;30542;47.928;2.138;2023-12-20T21:21:36;2.22;;;0.43;;
44824;SDS011;30542;47.928;2.138;2023-12-20T21:26:38;2.80;;;0.73;;
44824;SDS011;30542;47.928;2.138;2023-12-20T21:31:38;2.83;;;1.10;;
44824;SDS011;30542;47.928;2.138;2023-12-20T21:36:38;2.50;;;0.65;;
44824;SDS011;30542;47.928;2.138;2023-12-20T21:41:39;3.77;;;0.60;;
44824;SDS011;30542;47.928;2.138;2023-12-20T21:46:39;3.40;;;0.70;;
44824;SDS011;30542;47.928;2.138;2023-12-20T21:51:41;2.60;;;0.85;;
44824;SDS011;30542;47.928;2.138;2023-12-20T21:56:42;3.73;;;0.90;;
44824;SDS011;30542;47.928;2.138;2023-12-20T22:01:42;3.22;;;0.65;;
44824;SDS011;30542;47.928;2.138;2023-12-20T22:06:43;4.57;;;0.80;;
44824;SDS011;30542;47.928;2.138;2023-12-20T22:11:44;4.32;;;1.00;;
44824;SDS011;30542;47.928;2.138;2023-12-20T22:16:44;4.95;;;1.10;;
44824;SDS011;30542;47.928;2.138;2023-12-20T22:21:44;4.53;;;0.87;;
44824;SDS011;30542;47.928;2.138;2023-12-20T22:26:45;3.63;;;0.70;;
44824;SDS011;30542;47.928;2.138;2023-12-20T22:31:45;3.97;;;1.10;;
44824;SDS011;30542;47.928;2.138;2023-12-20T22:36:45;2.10;;;0.70;;
44824;SDS011;30542;47.928;2.138;2023-12-20T22:41:46;3.22;;;1.08;;
44824;SDS011;30542;47.928;2.138;2023-12-20T22:46:46;4.17;;;1.07;;
44824;SDS011;30542;47.928;2.138;2023-12-20T22:51:47;1.97;;;0.57;;
44824;SDS011;30542;47.928;2.138;2023-12-20T22:56:48;3.33;;;0.90;;
44824;SDS011;30542;47.928;2.138;2023-12-20T23:01:54;3.22;;;0.93;;
44824;SDS011;30542;47.928;2.138;2023-12-20T23:06:54;2.20;;;0.70;;
44824;SDS011;30542;47.928;2.138;2023-12-20T23:11:54;1.87;;;0.67;;
44824;SDS011;30542;47.928;2.138;2023-12-20T23:16:55;2.23;;;1.00;;
44824;SDS011;30542;47.928;2.138;2023-12-20T23:21:55;2.30;;;0.80;;
44824;SDS011;30542;47.928;2.138;2023-12-20T23:26:56;2.65;;;0.70;;
44824;SDS011;30542;47.928;2.138;2023-12-20T23:31:57;4.30;;;0.73;;
44824;SDS011;30542;47.928;2.138;2023-12-20T23:36:57;1.63;;;0.40;;
44824;SDS011;30542;47.928;2.138;2023-12-20T23:41:57;1.43;;;0.60;;
44824;SDS011;30542;47.928;2.138;2023-12-20T23:46:58;1.73;;;0.63;;
44824;SDS011;30542;47.928;2.138;2023-12-20T23:51:58;1.70;;;0.60;;
44824;SDS011;30542;47.928;2.138;2023-12-20T23:56:59;1.95;;;0.40;;
